createdAt,value
2023-05-06T00:00:34.832Z,18.13
2023-05-06T00:03:03.178Z,18.11
2023-05-06T00:05:31.189Z,17.91
2023-05-06T00:07:59.367Z,17.72
2023-05-06T00:10:27.459Z,17.68
2023-05-06T00:12:55.713Z,17.68
2023-05-06T00:15:25.117Z,17.66
2023-05-06T00:17:53.078Z,17.60
2023-05-06T00:20:21.070Z,17.57
2023-05-06T00:22:49.175Z,17.56
2023-05-06T00:25:17.094Z,17.56
2023-05-06T00:27:45.047Z,17.51
2023-05-06T00:30:13.983Z,17.50
2023-05-06T00:32:43.383Z,17.45
2023-05-06T00:35:11.502Z,17.44
2023-05-06T00:37:39.591Z,17.44
2023-05-06T00:40:09.102Z,17.50
2023-05-06T00:42:37.040Z,17.44
2023-05-06T00:45:05.994Z,17.38
2023-05-06T00:47:34.691Z,17.31
2023-05-06T00:50:04.464Z,17.27
2023-05-06T00:52:32.580Z,17.23
2023-05-06T00:55:00.545Z,17.19
2023-05-06T00:57:28.610Z,17.13
2023-05-06T00:59:56.562Z,17.12
2023-05-06T01:02:26.436Z,17.11
2023-05-06T01:05:03.459Z,17.09
2023-05-06T01:07:40.065Z,17.11
2023-05-06T01:10:18.813Z,17.03
2023-05-06T01:12:55.710Z,17.00
2023-05-06T01:15:30.003Z,17.02
2023-05-06T01:17:59.879Z,17.03
2023-05-06T01:20:31.987Z,17.04
2023-05-06T01:23:03.380Z,17.04
2023-05-06T01:25:33.826Z,17.04
2023-05-06T01:28:01.755Z,16.94
2023-05-06T01:30:36.294Z,16.94
2023-05-06T01:33:12.675Z,16.94
2023-05-06T01:35:51.133Z,16.97
2023-05-06T01:38:28.889Z,16.97
2023-05-06T01:41:01.189Z,16.95
2023-05-06T01:43:34.506Z,16.85
2023-05-06T01:46:04.592Z,16.84
2023-05-06T01:48:37.543Z,16.85
2023-05-06T01:51:05.815Z,16.82
2023-05-06T01:53:34.051Z,16.79
2023-05-06T01:56:03.601Z,16.75
2023-05-06T01:58:31.527Z,16.72
2023-05-06T02:00:59.785Z,16.72
2023-05-06T02:03:28.226Z,16.71
2023-05-06T02:05:56.740Z,16.68
2023-05-06T02:08:26.764Z,16.66
2023-05-06T02:10:54.859Z,16.62
2023-05-06T02:13:24.967Z,16.58
2023-05-06T02:15:54.801Z,16.58
2023-05-06T02:18:23.870Z,16.59
2023-05-06T02:20:51.784Z,16.65
2023-05-06T02:23:19.793Z,16.69
2023-05-06T02:25:48.166Z,16.73
2023-05-06T02:28:16.066Z,16.77
2023-05-06T02:30:45.460Z,16.73
2023-05-06T02:33:13.474Z,16.69
2023-05-06T02:35:41.363Z,16.69
2023-05-06T02:38:10.008Z,16.68
2023-05-06T02:40:37.875Z,16.66
2023-05-06T02:43:05.844Z,16.67
2023-05-06T02:45:35.316Z,16.65
2023-05-06T02:48:05.153Z,16.63
2023-05-06T02:50:33.181Z,16.59
2023-05-06T02:53:01.177Z,16.57
2023-05-06T02:55:29.131Z,16.59
2023-05-06T02:57:57.058Z,16.56
2023-05-06T03:00:25.130Z,16.09
2023-05-06T03:02:53.299Z,15.58
2023-05-06T03:05:22.639Z,15.54
2023-05-06T03:07:50.601Z,15.61
2023-05-06T03:10:18.865Z,15.81
2023-05-06T03:12:47.282Z,15.99
2023-05-06T03:15:15.268Z,16.12
2023-05-06T03:17:43.212Z,16.22
2023-05-06T03:20:13.584Z,16.25
2023-05-06T03:22:47.354Z,16.20
2023-05-06T03:25:15.631Z,16.13
2023-05-06T03:27:43.890Z,16.07
2023-05-06T03:30:18.759Z,15.94
2023-05-06T03:32:48.742Z,15.95
2023-05-06T03:35:22.536Z,15.98
2023-05-06T03:37:56.061Z,16.04
2023-05-06T03:40:26.742Z,16.05
2023-05-06T03:42:55.430Z,16.07
2023-05-06T03:45:24.705Z,16.08
2023-05-06T03:47:52.937Z,16.07
2023-05-06T03:50:23.567Z,16.07
2023-05-06T03:52:55.248Z,16.11
2023-05-06T03:55:25.741Z,16.11
2023-05-06T03:57:53.954Z,16.11
2023-05-06T04:00:23.081Z,16.10
2023-05-06T04:02:55.018Z,16.14
2023-05-06T04:05:33.480Z,16.13
2023-05-06T04:08:04.245Z,16.13
2023-05-06T04:10:32.373Z,16.05
2023-05-06T04:13:08.413Z,15.94
2023-05-06T04:15:42.672Z,15.93
2023-05-06T04:18:18.972Z,15.91
2023-05-06T04:20:55.822Z,15.85
2023-05-06T04:23:25.162Z,15.85
2023-05-06T04:25:53.220Z,15.83
2023-05-06T04:28:24.229Z,15.85
2023-05-06T04:30:53.196Z,15.84
2023-05-06T04:33:25.590Z,15.88
2023-05-06T04:35:55.151Z,15.90
2023-05-06T04:38:30.483Z,15.91
2023-05-06T04:40:58.540Z,15.88
2023-05-06T04:43:27.588Z,15.90
2023-05-06T04:46:01.897Z,15.89
2023-05-06T04:48:33.695Z,15.93
2023-05-06T04:51:04.378Z,15.92
2023-05-06T04:53:34.980Z,15.91
2023-05-06T04:56:03.968Z,15.92
2023-05-06T04:58:33.038Z,15.95
2023-05-06T05:01:05.332Z,15.92
2023-05-06T05:03:33.371Z,15.92
2023-05-06T05:06:03.522Z,15.95
2023-05-06T05:08:32.089Z,15.98
2023-05-06T05:11:01.433Z,16.01
2023-05-06T05:13:31.076Z,16.00
2023-05-06T05:15:59.802Z,16.08
2023-05-06T05:18:31.067Z,16.03
2023-05-06T05:21:05.006Z,15.97
2023-05-06T05:23:34.619Z,15.88
2023-05-06T05:26:04.638Z,15.98
2023-05-06T05:28:32.679Z,16.06
2023-05-06T05:31:04.360Z,16.10
2023-05-06T05:33:35.452Z,16.07
2023-05-06T05:36:06.292Z,16.08
2023-05-06T05:38:35.261Z,16.10
2023-05-06T05:41:06.400Z,16.15
2023-05-06T05:43:35.013Z,16.15
2023-05-06T05:46:03.462Z,16.20
2023-05-06T05:48:33.681Z,16.23
2023-05-06T05:51:03.640Z,16.35
2023-05-06T05:53:31.767Z,16.42
2023-05-06T05:56:00.512Z,16.42
2023-05-06T05:58:29.898Z,16.38
2023-05-06T06:01:00.193Z,16.25
2023-05-06T06:03:28.743Z,16.26
2023-05-06T06:05:56.780Z,16.28
2023-05-06T06:08:26.743Z,16.37
2023-05-06T06:10:56.469Z,16.34
2023-05-06T06:13:30.863Z,16.42
2023-05-06T06:16:00.872Z,16.62
2023-05-06T06:18:28.871Z,16.70
2023-05-06T06:20:56.898Z,16.60
2023-05-06T06:23:25.380Z,16.48
2023-05-06T06:25:53.466Z,16.34
2023-05-06T06:28:22.424Z,16.23
2023-05-06T06:30:51.856Z,16.25
2023-05-06T06:33:19.802Z,16.26
2023-05-06T06:35:47.861Z,16.42
2023-05-06T06:38:15.773Z,16.55
2023-05-06T06:40:43.808Z,16.60
2023-05-06T06:43:11.792Z,16.51
2023-05-06T06:45:57.360Z,16.46
2023-05-06T06:48:25.345Z,16.54
2023-05-06T06:50:53.293Z,16.70
2023-05-06T06:53:21.741Z,16.84
2023-05-06T06:55:49.636Z,16.91
2023-05-06T06:58:17.604Z,16.94
2023-05-06T07:00:45.722Z,16.95
2023-05-06T07:03:15.954Z,17.13
2023-05-06T07:05:43.954Z,17.12
2023-05-06T07:08:11.857Z,17.12
2023-05-06T07:10:39.848Z,17.25
2023-05-06T07:13:07.821Z,17.25
2023-05-06T07:15:35.900Z,17.28
2023-05-06T07:18:03.960Z,17.45
2023-05-06T07:20:33.353Z,17.60
2023-05-06T07:23:01.287Z,17.71
2023-05-06T07:25:29.197Z,17.85
2023-05-06T07:27:57.066Z,17.91
2023-05-06T07:30:25.039Z,17.96
2023-05-06T07:32:53.348Z,18.08
2023-05-06T07:35:21.380Z,18.14
2023-05-06T07:37:50.692Z,18.12
2023-05-06T07:40:18.569Z,18.22
2023-05-06T07:42:46.546Z,18.25
2023-05-06T07:45:15.221Z,18.13
2023-05-06T07:47:43.372Z,18.14
2023-05-06T07:50:11.880Z,18.24
2023-05-06T07:52:39.858Z,18.32
2023-05-06T07:55:11.268Z,18.40
2023-05-06T07:57:39.531Z,18.47
2023-05-06T08:00:10.054Z,18.53
2023-05-06T08:02:44.755Z,18.48
2023-05-06T08:05:13.460Z,18.27
2023-05-06T08:07:42.387Z,18.31
2023-05-06T08:10:12.429Z,18.50
2023-05-06T08:12:40.357Z,18.71
2023-05-06T08:15:09.817Z,18.74
2023-05-06T08:17:38.046Z,18.67
2023-05-06T08:20:07.081Z,18.80
2023-05-06T08:22:35.134Z,18.91
2023-05-06T08:25:03.425Z,18.80
2023-05-06T08:27:32.794Z,18.80
2023-05-06T08:30:00.714Z,18.87
2023-05-06T08:32:28.650Z,18.81
2023-05-06T08:34:56.601Z,18.74
2023-05-06T08:37:24.531Z,18.93
2023-05-06T08:39:52.426Z,18.99
2023-05-06T08:42:20.709Z,19.06
2023-05-06T08:44:52.888Z,19.05
2023-05-06T08:47:21.910Z,19.10
2023-05-06T08:49:49.982Z,19.15
2023-05-06T08:52:21.317Z,19.20
2023-05-06T08:54:53.591Z,19.28
2023-05-06T08:57:22.845Z,19.28
2023-05-06T08:59:52.889Z,19.49
2023-05-06T09:02:21.893Z,19.48
2023-05-06T09:04:50.532Z,19.47
2023-05-06T09:07:18.654Z,19.56
2023-05-06T09:09:46.658Z,19.56
2023-05-06T09:12:15.157Z,19.57
2023-05-06T09:14:43.765Z,19.55
2023-05-06T09:17:26.503Z,19.40
2023-05-06T09:19:57.087Z,19.43
2023-05-06T09:22:25.700Z,19.54
2023-05-06T09:24:57.401Z,19.76
2023-05-06T09:27:26.875Z,19.96
2023-05-06T09:30:02.724Z,19.97
2023-05-06T09:32:32.882Z,19.85
2023-05-06T09:35:00.997Z,19.85
2023-05-06T09:37:28.960Z,19.84
2023-05-06T09:39:58.045Z,20.04
2023-05-06T09:42:27.094Z,20.07
2023-05-06T09:44:56.287Z,20.05
2023-05-06T09:47:25.863Z,20.02
2023-05-06T09:49:59.480Z,19.97
2023-05-06T09:52:28.308Z,19.92
2023-05-06T09:54:56.373Z,20.02
2023-05-06T09:57:25.214Z,20.10
2023-05-06T09:59:53.719Z,20.17
2023-05-06T10:02:23.907Z,20.27
2023-05-06T10:04:55.669Z,20.47
2023-05-06T10:07:28.786Z,20.49
2023-05-06T10:09:59.427Z,20.45
2023-05-06T10:12:27.560Z,20.56
2023-05-06T10:14:55.587Z,20.72
2023-05-06T10:17:26.421Z,20.66
2023-05-06T10:19:59.869Z,20.58
2023-05-06T10:22:39.792Z,20.70
2023-05-06T10:25:27.312Z,20.87
2023-05-06T10:27:55.328Z,21.01
2023-05-06T10:30:24.949Z,20.92
2023-05-06T10:32:57.280Z,20.78
2023-05-06T10:35:33.719Z,20.76
2023-05-06T10:38:04.894Z,20.87
2023-05-06T10:40:33.106Z,20.90
2023-05-06T10:43:25.943Z,21.06
2023-05-06T10:46:05.547Z,21.16
2023-05-06T10:48:34.808Z,21.24
2023-05-06T10:51:25.823Z,21.10
2023-05-06T10:54:07.233Z,21.04
2023-05-06T10:56:36.672Z,21.19
2023-05-06T10:59:08.975Z,21.45
2023-05-06T11:01:38.584Z,21.59
2023-05-06T11:04:08.837Z,21.57
2023-05-06T11:06:42.279Z,21.65
2023-05-06T11:09:19.122Z,21.64
2023-05-06T11:12:10.856Z,21.68
2023-05-06T11:14:39.977Z,21.75
2023-05-06T11:17:09.105Z,21.83
2023-05-06T11:19:38.359Z,21.91
2023-05-06T11:22:07.569Z,22.04
2023-05-06T11:24:42.494Z,21.98
2023-05-06T11:27:11.673Z,21.87
2023-05-06T11:29:39.595Z,21.98
2023-05-06T11:32:22.663Z,21.91
2023-05-06T11:34:50.767Z,21.96
2023-05-06T11:37:26.097Z,21.98
2023-05-06T11:39:55.719Z,22.01
2023-05-06T11:42:28.738Z,21.97
2023-05-06T11:44:57.219Z,22.07
2023-05-06T11:47:25.412Z,22.08
2023-05-06T11:49:56.036Z,22.12
2023-05-06T11:52:24.068Z,22.26
2023-05-06T11:54:53.473Z,22.33
2023-05-06T11:57:22.863Z,22.30
2023-05-06T11:59:55.485Z,22.33
2023-05-06T12:02:23.562Z,22.47
2023-05-06T12:04:52.972Z,22.43
2023-05-06T12:07:20.973Z,22.48
2023-05-06T12:09:51.095Z,22.50
2023-05-06T12:12:23.299Z,22.29
2023-05-06T12:14:53.411Z,22.35
2023-05-06T12:17:21.744Z,22.37
2023-05-06T12:19:49.725Z,22.35
2023-05-06T12:22:22.364Z,22.39
2023-05-06T12:24:50.608Z,22.47
2023-05-06T12:27:35.551Z,22.55
2023-05-06T12:30:07.735Z,22.58
2023-05-06T12:32:35.860Z,22.68
2023-05-06T12:35:07.580Z,22.63
2023-05-06T12:37:35.588Z,22.61
2023-05-06T12:40:03.961Z,22.65
2023-05-06T12:42:31.956Z,22.68
2023-05-06T12:45:14.334Z,22.92
2023-05-06T12:47:53.608Z,22.90
2023-05-06T12:50:37.506Z,22.80
2023-05-06T12:53:06.793Z,22.72
2023-05-06T12:55:35.877Z,22.70
2023-05-06T12:58:04.083Z,22.79
2023-05-06T13:00:33.333Z,22.99
2023-05-06T13:03:01.727Z,23.05
2023-05-06T13:05:29.865Z,23.27
2023-05-06T13:07:57.750Z,23.47
2023-05-06T13:10:25.743Z,23.58
2023-05-06T13:12:53.687Z,23.68
2023-05-06T13:15:21.755Z,23.85
2023-05-06T13:17:51.305Z,23.90
2023-05-06T13:20:19.557Z,24.00
2023-05-06T13:22:54.418Z,23.73
2023-05-06T13:25:23.020Z,23.48
2023-05-06T13:27:50.934Z,23.52
2023-05-06T13:30:18.847Z,23.53
2023-05-06T13:32:47.815Z,23.53
2023-05-06T13:35:17.361Z,23.77
2023-05-06T13:37:45.417Z,23.95
2023-05-06T13:40:14.648Z,24.13
2023-05-06T13:42:42.555Z,24.17
2023-05-06T13:45:11.180Z,24.09
2023-05-06T13:47:39.119Z,24.23
2023-05-06T13:50:08.324Z,24.49
2023-05-06T13:52:37.602Z,24.54
2023-05-06T13:55:06.339Z,24.36
2023-05-06T13:57:34.275Z,24.12
2023-05-06T14:00:02.241Z,24.27
2023-05-06T14:02:35.097Z,24.33
2023-05-06T14:05:03.458Z,24.53
2023-05-06T14:07:31.446Z,24.87
2023-05-06T14:10:01.205Z,25.05
2023-05-06T14:12:29.129Z,24.98
2023-05-06T14:14:57.029Z,24.89
2023-05-06T14:17:24.951Z,24.94
2023-05-06T14:19:52.899Z,24.96
2023-05-06T14:22:20.831Z,24.82
2023-05-06T14:24:48.796Z,24.97
2023-05-06T14:27:18.130Z,24.79
2023-05-06T14:29:46.278Z,24.78
2023-05-06T14:32:14.268Z,24.98
2023-05-06T14:34:42.267Z,25.22
2023-05-06T14:37:10.315Z,25.37
2023-05-06T14:39:38.267Z,25.45
2023-05-06T14:42:06.357Z,25.58
2023-05-06T14:44:35.699Z,25.58
2023-05-06T14:47:03.651Z,25.77
2023-05-06T14:49:31.557Z,25.84
2023-05-06T14:51:59.424Z,25.75
2023-05-06T14:54:29.317Z,25.65
2023-05-06T14:57:01.309Z,25.60
2023-05-06T14:59:29.353Z,25.49
2023-05-06T15:01:58.898Z,25.75
2023-05-06T15:04:27.428Z,25.80
2023-05-06T15:06:56.781Z,25.61
2023-05-06T15:09:25.031Z,25.76
2023-05-06T15:11:53.032Z,25.82
2023-05-06T15:14:21.322Z,25.73
2023-05-06T15:16:49.266Z,25.87
2023-05-06T15:19:18.538Z,25.83
2023-05-06T15:21:46.479Z,25.82
2023-05-06T15:24:14.512Z,25.97
2023-05-06T15:26:42.453Z,25.94
2023-05-06T15:29:10.382Z,26.16
2023-05-06T15:31:40.762Z,26.33
2023-05-06T15:34:10.705Z,26.25
2023-05-06T15:36:41.343Z,25.84
2023-05-06T15:39:09.368Z,25.47
2023-05-06T15:41:39.003Z,25.30
2023-05-06T15:44:07.229Z,25.38
2023-05-06T15:46:35.286Z,25.68
2023-05-06T15:49:31.959Z,25.92
2023-05-06T15:51:52.596Z,25.95
2023-05-06T15:54:20.529Z,25.62
2023-05-06T15:56:48.467Z,25.41
2023-05-06T15:59:16.421Z,25.29
2023-05-06T16:04:17.129Z,25.24
2023-05-06T16:06:45.214Z,25.21
2023-05-06T16:09:14.545Z,25.28
2023-05-06T16:11:42.422Z,25.28
2023-05-06T16:14:10.352Z,25.33
2023-05-06T16:16:38.386Z,25.40
2023-05-06T16:19:06.444Z,25.57
2023-05-06T16:21:34.472Z,25.56
2023-05-06T16:24:02.652Z,25.38
2023-05-06T16:26:31.966Z,25.58
2023-05-06T16:29:01.652Z,25.61
2023-05-06T16:31:29.681Z,25.60
2023-05-06T16:33:57.579Z,25.36
2023-05-06T16:36:25.498Z,25.15
2023-05-06T16:38:53.388Z,24.94
2023-05-06T16:41:21.546Z,24.71
2023-05-06T16:43:51.338Z,24.53
2023-05-06T16:46:19.872Z,24.40
2023-05-06T16:48:48.986Z,24.26
2023-05-06T16:51:16.932Z,24.17
2023-05-06T16:53:44.849Z,24.13
2023-05-06T16:56:14.105Z,24.07
2023-05-06T16:58:42.562Z,23.88
2023-05-06T17:01:11.999Z,23.80
2023-05-06T17:03:40.493Z,23.72
2023-05-06T17:06:08.973Z,23.64
2023-05-06T17:08:37.582Z,23.54
2023-05-06T17:11:07.869Z,23.50
2023-05-06T17:13:35.823Z,23.45
2023-05-06T17:16:03.749Z,23.39
2023-05-06T17:18:33.036Z,23.36
2023-05-06T17:21:02.184Z,23.30
2023-05-06T17:23:30.223Z,23.25
2023-05-06T17:25:58.126Z,23.20
2023-05-06T17:28:26.219Z,23.14
2023-05-06T17:30:54.124Z,23.08
2023-05-06T17:33:22.126Z,23.03
2023-05-06T17:35:51.434Z,23.00
2023-05-06T17:38:19.383Z,22.96
2023-05-06T17:40:47.326Z,22.93
2023-05-06T17:43:15.321Z,22.91
2023-05-06T17:45:43.243Z,22.89
2023-05-06T17:48:11.290Z,22.78
2023-05-06T17:50:39.315Z,22.72
2023-05-06T17:53:08.608Z,22.68
2023-05-06T17:55:36.623Z,22.62
2023-05-06T17:58:04.593Z,22.61
2023-05-06T18:00:32.624Z,22.60
2023-05-06T18:03:00.858Z,22.56
2023-05-06T18:05:29.186Z,22.45
2023-05-06T18:07:57.061Z,22.27
2023-05-06T18:10:26.938Z,22.77
2023-05-06T18:12:55.528Z,22.45
2023-05-06T18:15:23.526Z,22.40
2023-05-06T18:17:51.529Z,22.32
2023-05-06T18:20:19.622Z,22.27
2023-05-06T18:22:47.560Z,22.20
2023-05-06T18:25:15.476Z,22.20
2023-05-06T18:27:44.787Z,22.04
2023-05-06T18:30:13.241Z,22.03
2023-05-06T18:32:41.183Z,21.89
2023-05-06T18:35:10.874Z,21.76
2023-05-06T18:37:39.273Z,21.65
2023-05-06T18:40:09.097Z,21.67
2023-05-06T18:42:37.052Z,21.59
2023-05-06T18:45:08.092Z,21.51
2023-05-06T18:47:37.000Z,21.47
2023-05-06T18:50:05.247Z,21.46
2023-05-06T18:52:33.166Z,21.36
2023-05-06T18:55:02.574Z,21.22
2023-05-06T18:57:30.643Z,21.25
2023-05-06T18:59:58.567Z,21.86
2023-05-06T19:02:27.902Z,21.50
2023-05-06T19:04:55.895Z,21.30
2023-05-06T19:07:23.774Z,21.70
2023-05-06T19:09:51.652Z,21.39
2023-05-06T19:12:19.543Z,21.25
2023-05-06T19:14:47.447Z,21.76
2023-05-06T19:17:15.912Z,21.49
2023-05-06T19:19:46.987Z,21.30
2023-05-06T19:22:15.538Z,21.23
2023-05-06T19:24:43.468Z,21.25
2023-05-06T19:27:11.594Z,21.13
2023-05-06T19:29:39.827Z,21.05
2023-05-06T19:32:07.731Z,21.04
2023-05-06T19:34:35.641Z,21.00
2023-05-06T19:37:04.945Z,20.92
2023-05-06T19:39:32.817Z,20.79
2023-05-06T19:42:00.803Z,20.76
2023-05-06T19:44:28.688Z,20.75
2023-05-06T19:46:56.623Z,20.76
2023-05-06T19:49:24.590Z,20.69
2023-05-06T19:51:52.548Z,20.62
2023-05-06T19:54:22.450Z,20.57
2023-05-06T19:56:50.482Z,20.50
2023-05-06T19:59:18.573Z,20.46
2023-05-06T20:01:46.508Z,20.42
2023-05-06T20:04:14.449Z,20.38
2023-05-06T20:06:42.353Z,20.35
2023-05-06T20:09:10.369Z,20.30
2023-05-06T20:11:39.963Z,20.24
2023-05-06T20:14:07.882Z,20.22
2023-05-06T20:16:35.910Z,20.20
2023-05-06T20:19:03.909Z,20.14
2023-05-06T20:21:31.820Z,20.09
2023-05-06T20:23:59.748Z,20.06
2023-05-06T20:26:27.648Z,20.04
2023-05-06T20:28:57.284Z,20.03
2023-05-06T20:31:25.499Z,20.02
2023-05-06T20:33:53.477Z,20.00
2023-05-06T20:36:21.452Z,19.99
2023-05-06T20:38:51.531Z,19.96
2023-05-06T20:41:19.523Z,19.97
2023-05-06T20:43:47.481Z,19.99
2023-05-06T20:46:18.542Z,20.00
2023-05-06T20:48:46.601Z,19.98
2023-05-06T20:51:14.557Z,19.97
2023-05-06T20:53:42.927Z,19.99
2023-05-06T20:56:18.384Z,19.98
2023-05-06T20:58:46.333Z,19.95
2023-05-06T21:01:14.294Z,19.95
2023-05-06T21:03:43.787Z,19.95
2023-05-06T21:06:12.034Z,19.88
2023-05-06T21:08:39.990Z,19.81
2023-05-06T21:11:07.996Z,19.81
2023-05-06T21:13:35.980Z,19.82
2023-05-06T21:16:04.260Z,19.79
2023-05-06T21:18:32.271Z,19.79
2023-05-06T21:21:01.665Z,19.76
2023-05-06T21:23:29.595Z,19.71
2023-05-06T21:25:59.365Z,19.66
2023-05-06T21:28:27.305Z,19.65
2023-05-06T21:30:55.207Z,19.65
2023-05-06T21:33:23.166Z,19.64
2023-05-06T21:35:51.163Z,19.60
2023-05-06T21:38:20.453Z,19.54
2023-05-06T21:40:48.382Z,19.49
2023-05-06T21:43:17.873Z,19.49
2023-05-06T21:45:45.994Z,19.49
2023-05-06T21:48:13.899Z,19.49
2023-05-06T21:50:41.830Z,19.51
2023-05-06T21:53:09.734Z,19.46
2023-05-06T21:55:39.105Z,19.46
2023-05-06T21:58:07.171Z,19.39
2023-05-06T22:00:35.088Z,19.32
2023-05-06T22:03:03.114Z,19.18
2023-05-06T22:05:31.143Z,19.21
2023-05-06T22:07:59.089Z,19.23
2023-05-06T22:10:27.000Z,19.20
2023-05-06T22:12:56.484Z,19.24
2023-05-06T22:15:24.386Z,19.24
2023-05-06T22:17:52.328Z,19.19
2023-05-06T22:20:21.474Z,19.08
2023-05-06T22:22:51.800Z,19.08
2023-05-06T22:25:19.778Z,18.99
2023-05-06T22:27:47.656Z,18.91
2023-05-06T22:30:17.334Z,18.94
2023-05-06T22:32:45.761Z,18.96
2023-05-06T22:35:13.724Z,18.98
2023-05-06T22:37:41.600Z,18.99
2023-05-06T22:40:11.054Z,19.04
2023-05-06T22:42:39.266Z,19.07
2023-05-06T22:45:08.958Z,19.10
2023-05-06T22:47:38.666Z,19.14
2023-05-06T22:50:08.142Z,19.16
2023-05-06T22:52:36.047Z,19.16
2023-05-06T22:55:04.174Z,19.12
2023-05-06T22:57:32.064Z,18.97
2023-05-06T22:59:59.951Z,18.96
2023-05-06T23:02:28.509Z,18.91
2023-05-06T23:04:57.767Z,18.96
2023-05-06T23:07:25.751Z,18.98
2023-05-06T23:09:53.659Z,18.81
2023-05-06T23:12:21.592Z,18.82
2023-05-06T23:14:49.501Z,18.80
2023-05-06T23:17:17.497Z,18.83
2023-05-06T23:19:45.936Z,18.82
2023-05-06T23:22:15.403Z,18.80
2023-05-06T23:24:43.577Z,18.75
2023-05-06T23:27:11.704Z,18.71
2023-05-06T23:29:39.582Z,18.68
2023-05-06T23:32:07.804Z,18.66
2023-05-06T23:34:35.747Z,18.65
2023-05-06T23:37:03.708Z,18.65
2023-05-06T23:39:33.012Z,18.67
2023-05-06T23:42:02.214Z,18.67
2023-05-06T23:44:30.192Z,18.67
2023-05-06T23:46:58.142Z,18.67
2023-05-06T23:49:26.096Z,18.62
2023-05-06T23:51:53.983Z,18.59
2023-05-06T23:54:22.043Z,18.52
2023-05-06T23:56:51.338Z,18.53
2023-05-06T23:59:19.211Z,18.55
